createdAt,value
2022-11-29T00:01:31.033Z,8.30
2022-11-29T00:03:58.425Z,8.30
2022-11-29T00:06:31.952Z,8.30
2022-11-29T00:09:00.887Z,8.20
2022-11-29T00:11:49.175Z,8.30
2022-11-29T00:14:17.950Z,8.30
2022-11-29T00:16:44.699Z,8.40
2022-11-29T00:19:13.006Z,8.40
2022-11-29T00:21:39.744Z,8.40
2022-11-29T00:24:06.759Z,8.40
2022-11-29T00:26:33.747Z,8.40
2022-11-29T00:29:00.916Z,8.40
2022-11-29T00:31:30.449Z,8.40
2022-11-29T00:33:58.986Z,8.40
2022-11-29T00:36:27.080Z,8.40
2022-11-29T00:38:53.808Z,8.50
2022-11-29T00:41:20.507Z,8.50
2022-11-29T00:43:47.197Z,8.50
2022-11-29T00:46:13.981Z,8.50
2022-11-29T00:48:40.776Z,8.50
2022-11-29T00:51:08.357Z,8.50
2022-11-29T00:53:36.051Z,8.50
2022-11-29T00:56:04.539Z,8.60
2022-11-29T00:58:31.338Z,8.60
2022-11-29T01:00:58.232Z,8.60
2022-11-29T01:03:25.255Z,8.50
2022-11-29T01:05:51.926Z,8.60
2022-11-29T01:08:19.233Z,8.60
2022-11-29T01:10:46.016Z,8.60
2022-11-29T01:13:12.729Z,8.60
2022-11-29T01:15:39.490Z,8.60
2022-11-29T01:18:06.184Z,8.60
2022-11-29T01:20:32.836Z,8.60
2022-11-29T01:22:59.487Z,8.60
2022-11-29T01:25:26.158Z,8.60
2022-11-29T01:27:52.812Z,8.60
2022-11-29T01:30:19.558Z,8.60
2022-11-29T01:32:46.240Z,8.60
2022-11-29T01:35:12.924Z,8.60
2022-11-29T01:37:39.613Z,8.60
2022-11-29T01:40:07.019Z,8.60
2022-11-29T01:42:33.798Z,8.60
2022-11-29T01:45:05.575Z,8.60
2022-11-29T01:47:32.534Z,8.60
2022-11-29T01:49:59.839Z,8.60
2022-11-29T01:52:30.638Z,8.60
2022-11-29T01:55:01.668Z,8.60
2022-11-29T01:57:29.282Z,8.60
2022-11-29T02:00:01.578Z,8.60
2022-11-29T02:02:36.893Z,8.60
2022-11-29T02:05:04.801Z,8.50
2022-11-29T02:07:31.654Z,8.60
2022-11-29T02:09:58.604Z,8.60
2022-11-29T02:12:59.570Z,8.60
2022-11-29T02:15:49.738Z,8.60
2022-11-29T02:19:00.720Z,8.60
2022-11-29T02:21:35.622Z,8.60
2022-11-29T02:24:05.407Z,8.60
2022-11-29T02:26:52.310Z,8.60
2022-11-29T02:29:24.814Z,8.70
2022-11-29T02:32:19.183Z,8.60
2022-11-29T02:34:46.052Z,8.60
2022-11-29T02:37:24.822Z,8.70
2022-11-29T02:40:22.752Z,8.60
2022-11-29T02:43:19.361Z,8.70
2022-11-29T02:45:51.392Z,8.60
2022-11-29T02:48:41.266Z,8.60
2022-11-29T02:51:39.347Z,8.60
2022-11-29T02:54:08.799Z,8.60
2022-11-29T02:56:56.762Z,8.70
2022-11-29T02:59:43.132Z,8.70
2022-11-29T03:02:31.249Z,8.70
2022-11-29T03:05:13.639Z,8.70
2022-11-29T03:08:10.992Z,8.60
2022-11-29T03:11:16.134Z,8.60
2022-11-29T03:14:13.144Z,8.70
2022-11-29T03:17:00.462Z,8.60
2022-11-29T03:19:39.836Z,8.60
2022-11-29T03:22:30.862Z,8.60
2022-11-29T03:25:09.041Z,8.60
2022-11-29T03:27:44.008Z,8.60
2022-11-29T03:30:13.766Z,8.60
2022-11-29T03:33:03.070Z,8.60
2022-11-29T03:35:53.205Z,8.60
2022-11-29T03:38:31.341Z,8.60
2022-11-29T03:41:14.094Z,8.60
2022-11-29T03:43:47.415Z,8.60
2022-11-29T03:46:22.953Z,8.60
2022-11-29T03:48:55.712Z,8.60
2022-11-29T03:51:58.125Z,8.60
2022-11-29T03:54:35.131Z,8.60
2022-11-29T03:57:02.090Z,8.60
2022-11-29T04:00:07.248Z,8.60
2022-11-29T04:02:52.887Z,8.60
2022-11-29T04:05:33.361Z,8.60
2022-11-29T04:08:21.935Z,8.60
2022-11-29T04:11:19.783Z,8.60
2022-11-29T04:13:46.408Z,8.60
2022-11-29T04:16:27.122Z,8.60
2022-11-29T04:19:41.279Z,8.60
2022-11-29T04:22:50.499Z,8.60
2022-11-29T04:25:39.886Z,8.50
2022-11-29T04:28:40.279Z,8.50
2022-11-29T04:31:06.837Z,8.50
2022-11-29T04:34:12.914Z,8.50
2022-11-29T04:37:18.608Z,8.40
2022-11-29T04:40:14.083Z,8.40
2022-11-29T04:43:19.124Z,8.40
2022-11-29T04:45:55.323Z,8.30
2022-11-29T04:48:37.407Z,8.30
2022-11-29T04:51:37.866Z,8.30
2022-11-29T04:54:20.950Z,8.30
2022-11-29T04:56:53.874Z,8.20
2022-11-29T05:00:16.221Z,8.10
2022-11-29T05:02:49.118Z,8.10
2022-11-29T05:05:21.908Z,8.10
2022-11-29T05:08:12.813Z,8.10
2022-11-29T05:10:49.309Z,8.10
2022-11-29T05:13:26.187Z,8.10
2022-11-29T05:16:11.377Z,8.10
2022-11-29T05:19:02.034Z,8.10
2022-11-29T05:21:53.100Z,8.10
2022-11-29T05:24:31.173Z,8.10
2022-11-29T05:27:23.466Z,8.10
2022-11-29T05:30:10.454Z,8.10
2022-11-29T05:33:11.015Z,8.10
2022-11-29T05:36:05.675Z,8.10
2022-11-29T05:38:50.949Z,8.10
2022-11-29T05:41:46.004Z,8.10
2022-11-29T05:44:19.027Z,8.00
2022-11-29T05:46:59.090Z,8.00
2022-11-29T05:49:38.138Z,8.00
2022-11-29T05:52:25.034Z,8.00
2022-11-29T05:55:28.724Z,7.90
2022-11-29T05:58:08.577Z,7.90
2022-11-29T06:00:54.223Z,7.90
2022-11-29T06:03:51.079Z,7.90
2022-11-29T06:06:41.038Z,7.90
2022-11-29T06:09:28.185Z,7.90
2022-11-29T06:12:09.796Z,7.90
2022-11-29T06:14:57.388Z,7.90
2022-11-29T06:17:52.337Z,7.90
2022-11-29T06:20:34.192Z,7.90
2022-11-29T06:23:17.854Z,7.80
2022-11-29T06:25:50.636Z,7.80
2022-11-29T06:28:49.892Z,7.80
2022-11-29T06:31:28.085Z,7.80
2022-11-29T06:34:15.662Z,7.80
2022-11-29T06:36:52.022Z,7.80
2022-11-29T06:39:19.292Z,7.80
2022-11-29T06:41:47.097Z,7.80
2022-11-29T06:44:14.048Z,7.80
2022-11-29T06:46:45.773Z,7.80
2022-11-29T06:49:30.005Z,7.80
2022-11-29T06:52:40.670Z,7.80
2022-11-29T06:55:16.527Z,7.70
2022-11-29T06:57:53.295Z,7.70
2022-11-29T07:00:47.623Z,7.70
2022-11-29T07:03:34.276Z,7.70
2022-11-29T07:06:11.149Z,7.70
2022-11-29T07:08:40.227Z,7.70
2022-11-29T07:11:08.972Z,7.70
2022-11-29T07:13:35.927Z,7.70
2022-11-29T07:16:17.360Z,7.70
2022-11-29T07:18:53.758Z,7.70
2022-11-29T07:21:40.335Z,7.70
2022-11-29T07:24:38.023Z,7.70
2022-11-29T07:27:23.087Z,7.80
2022-11-29T07:29:55.488Z,7.80
2022-11-29T07:33:03.808Z,7.80
2022-11-29T07:35:45.257Z,7.80
2022-11-29T07:38:50.166Z,7.80
2022-11-29T07:41:51.723Z,7.80
2022-11-29T07:44:35.536Z,7.90
2022-11-29T07:47:02.278Z,7.90
2022-11-29T07:49:29.018Z,7.90
2022-11-29T07:51:55.834Z,7.90
2022-11-29T07:54:22.651Z,8.00
2022-11-29T07:56:49.307Z,8.00
2022-11-29T07:59:16.010Z,8.00
2022-11-29T08:01:42.697Z,8.00
2022-11-29T08:04:09.730Z,8.10
2022-11-29T08:06:36.931Z,8.10
2022-11-29T08:09:04.622Z,8.10
2022-11-29T08:11:31.293Z,8.10
2022-11-29T08:13:59.325Z,8.10
2022-11-29T08:16:26.256Z,8.20
2022-11-29T08:18:53.106Z,8.20
2022-11-29T08:21:19.759Z,8.30
2022-11-29T08:23:47.743Z,8.30
2022-11-29T08:26:16.078Z,8.30
2022-11-29T08:28:42.804Z,8.40
2022-11-29T08:31:11.296Z,8.40
2022-11-29T08:33:40.050Z,8.50
2022-11-29T08:36:13.316Z,8.50
2022-11-29T08:38:40.302Z,8.60
2022-11-29T08:41:10.225Z,8.60
2022-11-29T08:43:37.068Z,8.60
2022-11-29T08:46:04.037Z,8.60
2022-11-29T08:48:30.812Z,8.60
2022-11-29T08:50:58.092Z,8.60
2022-11-29T08:53:43.672Z,8.70
2022-11-29T08:59:05.766Z,8.70
2022-11-29T09:01:32.568Z,8.70
2022-11-29T09:04:07.645Z,8.70
2022-11-29T09:06:39.399Z,8.70
2022-11-29T09:09:06.249Z,8.70
2022-11-29T09:11:34.571Z,8.70
2022-11-29T09:14:04.412Z,8.70
2022-11-29T09:16:34.235Z,8.60
2022-11-29T09:19:01.535Z,8.60
2022-11-29T09:21:30.290Z,8.60
2022-11-29T09:24:00.015Z,8.60
2022-11-29T09:26:29.913Z,8.50
2022-11-29T09:29:03.828Z,8.50
2022-11-29T09:31:31.564Z,8.50
2022-11-29T09:33:58.652Z,8.50
2022-11-29T09:36:28.849Z,8.50
2022-11-29T09:39:00.691Z,8.60
2022-11-29T09:41:49.717Z,8.60
2022-11-29T09:44:22.114Z,8.60
2022-11-29T09:47:03.837Z,8.60
2022-11-29T09:49:46.543Z,8.70
2022-11-29T09:52:13.165Z,8.70
2022-11-29T09:55:17.472Z,8.80
2022-11-29T09:57:44.820Z,8.90
2022-11-29T10:00:17.390Z,9.00
2022-11-29T10:02:51.472Z,9.10
2022-11-29T10:05:22.262Z,9.20
2022-11-29T10:08:03.124Z,9.30
2022-11-29T10:10:31.930Z,9.30
2022-11-29T10:13:19.901Z,9.40
2022-11-29T10:15:51.376Z,9.50
2022-11-29T10:18:32.252Z,9.50
2022-11-29T10:21:04.663Z,9.60
2022-11-29T10:23:43.730Z,9.70
2022-11-29T10:26:12.658Z,9.80
2022-11-29T10:28:47.631Z,9.80
2022-11-29T10:31:26.899Z,9.90
2022-11-29T10:33:55.504Z,10.00
2022-11-29T10:36:26.426Z,10.00
2022-11-29T10:38:59.081Z,10.00
2022-11-29T10:41:27.046Z,10.10
2022-11-29T10:43:57.946Z,10.10
2022-11-29T10:46:30.076Z,10.20
2022-11-29T10:48:59.341Z,10.20
2022-11-29T10:51:26.120Z,10.20
2022-11-29T10:53:54.676Z,10.30
2022-11-29T10:56:29.576Z,10.20
2022-11-29T10:59:03.345Z,10.20
2022-11-29T11:01:31.830Z,10.10
2022-11-29T11:04:00.527Z,10.10
2022-11-29T11:06:49.276Z,10.10
2022-11-29T11:09:20.730Z,9.90
2022-11-29T11:11:53.499Z,9.90
2022-11-29T11:14:27.947Z,9.90
2022-11-29T11:16:54.809Z,9.80
2022-11-29T11:19:33.455Z,9.80
2022-11-29T11:22:03.979Z,9.70
2022-11-29T11:24:33.815Z,9.80
2022-11-29T11:27:01.456Z,9.80
2022-11-29T11:29:43.727Z,9.80
2022-11-29T11:32:20.513Z,9.70
2022-11-29T11:34:59.163Z,9.70
2022-11-29T11:37:56.012Z,9.80
2022-11-29T11:40:29.189Z,9.80
2022-11-29T11:42:59.342Z,9.80
2022-11-29T11:45:35.298Z,9.80
2022-11-29T11:48:11.130Z,9.80
2022-11-29T11:50:43.648Z,9.80
2022-11-29T11:53:35.682Z,9.80
2022-11-29T11:56:08.447Z,9.70
2022-11-29T11:58:49.380Z,9.70
2022-11-29T12:01:36.407Z,9.70
2022-11-29T12:04:30.590Z,9.60
2022-11-29T12:07:01.381Z,9.60
2022-11-29T12:09:48.312Z,9.60
2022-11-29T12:12:27.778Z,9.60
2022-11-29T12:14:56.607Z,9.60
2022-11-29T12:17:38.121Z,9.60
2022-11-29T12:20:07.758Z,9.60
2022-11-29T12:22:47.896Z,9.60
2022-11-29T12:25:21.159Z,9.60
2022-11-29T12:27:50.200Z,9.60
2022-11-29T12:30:18.525Z,9.50
2022-11-29T12:33:08.240Z,9.50
2022-11-29T12:35:37.887Z,9.50
2022-11-29T12:38:29.454Z,9.60
2022-11-29T12:41:20.757Z,9.60
2022-11-29T12:44:08.475Z,9.60
2022-11-29T12:46:36.148Z,9.60
2022-11-29T12:49:30.414Z,9.70
2022-11-29T12:52:18.505Z,9.70
2022-11-29T12:55:08.284Z,9.70
2022-11-29T12:57:58.359Z,9.70
2022-11-29T13:00:28.820Z,9.70
2022-11-29T13:03:18.927Z,9.70
2022-11-29T13:06:04.270Z,9.60
2022-11-29T13:08:43.249Z,9.60
2022-11-29T13:11:18.900Z,9.60
2022-11-29T13:14:20.250Z,9.60
2022-11-29T13:17:00.105Z,9.50
2022-11-29T13:19:55.433Z,9.50
2022-11-29T13:23:09.531Z,9.50
2022-11-29T13:25:40.536Z,9.50
2022-11-29T13:28:30.055Z,9.40
2022-11-29T13:31:20.574Z,9.30
2022-11-29T13:33:53.648Z,9.30
2022-11-29T13:36:35.168Z,9.30
2022-11-29T13:39:35.024Z,9.10
2022-11-29T13:42:17.439Z,9.10
2022-11-29T13:45:22.997Z,9.00
2022-11-29T13:48:00.771Z,8.90
2022-11-29T13:50:46.144Z,8.90
2022-11-29T13:53:20.547Z,8.90
2022-11-29T13:56:01.019Z,8.90
2022-11-29T13:58:40.121Z,8.90
2022-11-29T14:01:12.910Z,8.90
2022-11-29T14:04:09.499Z,8.90
2022-11-29T14:06:38.334Z,8.80
2022-11-29T14:09:28.539Z,8.90
2022-11-29T14:11:55.236Z,8.80
2022-11-29T14:14:51.229Z,8.90
2022-11-29T14:17:41.676Z,8.80
2022-11-29T14:20:32.397Z,8.80
2022-11-29T14:23:05.367Z,8.70
2022-11-29T14:25:51.108Z,8.60
2022-11-29T14:28:21.576Z,8.60
2022-11-29T14:30:53.542Z,8.60
2022-11-29T14:33:50.954Z,8.50
2022-11-29T14:36:20.498Z,8.50
2022-11-29T14:39:21.197Z,8.60
2022-11-29T14:41:50.886Z,8.50
2022-11-29T14:44:32.113Z,8.50
2022-11-29T14:47:07.589Z,8.50
2022-11-29T14:49:43.454Z,8.50
2022-11-29T14:52:19.999Z,8.50
2022-11-29T14:55:15.637Z,8.50
2022-11-29T14:58:04.084Z,8.50
2022-11-29T15:00:48.757Z,8.50
2022-11-29T15:03:32.996Z,8.50
2022-11-29T15:06:09.273Z,8.50
2022-11-29T15:08:52.706Z,8.40
2022-11-29T15:11:30.544Z,8.40
2022-11-29T15:14:15.818Z,8.40
2022-11-29T15:17:00.757Z,8.40
2022-11-29T15:19:49.929Z,8.40
2022-11-29T15:22:22.275Z,8.40
2022-11-29T15:24:53.798Z,8.40
2022-11-29T15:27:21.000Z,8.40
2022-11-29T15:29:48.992Z,8.40
2022-11-29T15:32:24.120Z,8.40
2022-11-29T15:34:53.356Z,8.50
2022-11-29T15:37:32.260Z,8.40
2022-11-29T15:40:14.867Z,8.40
2022-11-29T15:42:44.774Z,8.40
2022-11-29T15:45:25.883Z,8.40
2022-11-29T15:47:52.978Z,8.40
2022-11-29T15:50:44.004Z,8.40
2022-11-29T15:53:18.387Z,8.40
2022-11-29T15:55:49.356Z,8.30
2022-11-29T15:58:17.284Z,8.30
2022-11-29T16:00:49.510Z,8.30
2022-11-29T16:03:26.027Z,8.30
2022-11-29T16:06:30.251Z,8.30
2022-11-29T16:08:57.293Z,8.30
2022-11-29T16:11:27.844Z,8.30
2022-11-29T16:14:12.364Z,8.30
2022-11-29T16:16:40.672Z,8.30
2022-11-29T16:19:31.232Z,8.40
2022-11-29T16:22:11.386Z,8.40
2022-11-29T16:24:48.250Z,8.40
2022-11-29T16:27:15.151Z,8.40
2022-11-29T16:29:47.529Z,8.40
2022-11-29T16:32:33.165Z,8.40
2022-11-29T16:35:12.547Z,8.40
2022-11-29T16:37:42.529Z,8.40
2022-11-29T16:40:25.697Z,8.40
2022-11-29T16:43:04.408Z,8.40
2022-11-29T16:45:38.048Z,8.40
2022-11-29T16:48:27.467Z,8.40
2022-11-29T16:51:13.327Z,8.40
2022-11-29T16:53:47.590Z,8.40
2022-11-29T16:56:17.877Z,8.40
2022-11-29T16:59:25.932Z,8.40
2022-11-29T17:01:32.592Z,8.40
2022-11-29T17:04:00.617Z,8.40
2022-11-29T17:06:29.444Z,8.40
2022-11-29T17:08:58.947Z,8.40
2022-11-29T17:11:26.387Z,8.40
2022-11-29T17:13:53.095Z,8.40
2022-11-29T17:16:22.237Z,8.40
2022-11-29T17:18:49.393Z,8.40
2022-11-29T17:21:20.907Z,8.40
2022-11-29T17:23:48.027Z,8.40
2022-11-29T17:26:15.492Z,8.40
2022-11-29T17:28:43.812Z,8.40
2022-11-29T17:31:12.138Z,8.40
2022-11-29T17:33:39.286Z,8.40
2022-11-29T17:36:08.123Z,8.40
2022-11-29T17:38:35.197Z,8.40
2022-11-29T17:41:16.332Z,8.30
2022-11-29T17:43:43.042Z,8.30
2022-11-29T17:46:11.563Z,8.30
2022-11-29T17:48:41.035Z,8.30
2022-11-29T17:51:28.792Z,8.20
2022-11-29T17:53:55.231Z,8.20
2022-11-29T17:56:24.768Z,8.20
2022-11-29T17:58:56.082Z,8.10
2022-11-29T18:01:25.538Z,8.20
2022-11-29T18:03:57.695Z,8.10
2022-11-29T18:06:30.383Z,8.10
2022-11-29T18:08:59.790Z,8.10
2022-11-29T18:11:45.255Z,8.10
2022-11-29T18:14:16.300Z,8.10
2022-11-29T18:16:45.137Z,8.10
2022-11-29T18:19:14.247Z,8.10
2022-11-29T18:21:40.966Z,8.10
2022-11-29T18:24:08.688Z,8.10
2022-11-29T18:26:36.802Z,8.10
2022-11-29T18:29:05.375Z,8.10
2022-11-29T18:31:34.768Z,8.10
2022-11-29T18:34:07.005Z,8.10
2022-11-29T18:36:35.841Z,8.10
2022-11-29T18:39:06.009Z,8.10
2022-11-29T18:41:32.907Z,8.10
2022-11-29T18:44:02.755Z,8.10
2022-11-29T18:46:33.291Z,8.10
2022-11-29T18:49:03.182Z,8.10
2022-11-29T18:51:31.443Z,8.10
2022-11-29T18:53:58.904Z,8.10
2022-11-29T18:56:28.605Z,8.10
2022-11-29T18:58:58.818Z,8.10
2022-11-29T19:01:26.832Z,8.10
2022-11-29T19:03:55.918Z,8.00
2022-11-29T19:06:25.996Z,8.10
2022-11-29T19:08:53.270Z,8.00
2022-11-29T19:11:22.629Z,8.10
2022-11-29T19:13:57.684Z,8.00
2022-11-29T19:16:25.501Z,8.00
2022-11-29T19:18:54.273Z,8.00
2022-11-29T19:21:22.835Z,8.00
2022-11-29T19:23:55.033Z,7.90
2022-11-29T19:26:23.073Z,7.90
2022-11-29T19:28:50.344Z,7.90
2022-11-29T19:31:18.873Z,7.90
2022-11-29T19:33:46.483Z,8.00
2022-11-29T19:36:20.475Z,7.90
2022-11-29T19:38:52.960Z,8.00
2022-11-29T19:41:34.669Z,8.00
2022-11-29T19:44:04.379Z,8.00
2022-11-29T19:46:36.885Z,8.10
2022-11-29T19:49:05.020Z,8.00
2022-11-29T19:51:31.974Z,8.00
2022-11-29T19:54:01.246Z,8.00
2022-11-29T19:56:29.423Z,8.00
2022-11-29T19:58:56.555Z,8.00
2022-11-29T20:01:27.970Z,8.00
2022-11-29T20:03:58.667Z,8.00
2022-11-29T20:06:29.823Z,8.00
2022-11-29T20:08:57.314Z,8.00
2022-11-29T20:11:25.139Z,8.00
2022-11-29T20:13:54.894Z,7.90
2022-11-29T20:16:22.451Z,7.90
2022-11-29T20:18:51.089Z,7.90
2022-11-29T20:21:20.756Z,8.00
2022-11-29T20:23:47.654Z,7.90
2022-11-29T20:26:16.950Z,7.90
2022-11-29T20:28:44.585Z,7.90
2022-11-29T20:31:17.710Z,7.90
2022-11-29T20:33:46.144Z,7.90
2022-11-29T20:36:41.701Z,7.90
2022-11-29T20:39:45.697Z,8.00
2022-11-29T20:42:37.384Z,8.00
2022-11-29T20:45:06.857Z,8.00
2022-11-29T20:47:46.408Z,8.00
2022-11-29T20:50:24.067Z,7.90
2022-11-29T20:53:02.594Z,7.90
2022-11-29T20:55:29.275Z,7.90
2022-11-29T20:57:56.026Z,7.90
2022-11-29T21:00:22.924Z,7.90
2022-11-29T21:02:49.836Z,7.80
2022-11-29T21:05:16.726Z,7.80
2022-11-29T21:07:44.040Z,7.80
2022-11-29T21:10:11.297Z,7.80
2022-11-29T21:12:38.751Z,7.70
2022-11-29T21:15:06.170Z,7.70
2022-11-29T21:17:33.986Z,7.70
2022-11-29T21:20:01.355Z,7.70
2022-11-29T21:23:00.474Z,7.80
2022-11-29T21:25:27.410Z,7.80
2022-11-29T21:27:55.461Z,7.80
2022-11-29T21:30:25.468Z,7.70
2022-11-29T21:32:52.596Z,7.70
2022-11-29T21:35:19.660Z,7.70
2022-11-29T21:37:46.618Z,7.70
2022-11-29T21:40:14.544Z,7.70
2022-11-29T21:42:41.307Z,7.80
2022-11-29T21:45:14.866Z,7.80
2022-11-29T21:47:43.860Z,7.90
2022-11-29T21:50:11.775Z,7.90
2022-11-29T21:52:38.606Z,7.90
2022-11-29T21:55:05.728Z,7.90
2022-11-29T21:57:32.400Z,8.00
2022-11-29T21:59:59.046Z,8.00
2022-11-29T22:02:25.791Z,8.00
2022-11-29T22:04:52.459Z,8.00
2022-11-29T22:07:19.180Z,8.00
2022-11-29T22:09:45.907Z,8.00
2022-11-29T22:12:33.104Z,8.00
2022-11-29T22:14:59.275Z,8.10
2022-11-29T22:17:25.933Z,8.10
2022-11-29T22:19:52.636Z,8.00
2022-11-29T22:22:19.353Z,8.00
2022-11-29T22:24:46.195Z,8.10
2022-11-29T22:27:13.134Z,8.00
2022-11-29T22:29:39.808Z,8.10
2022-11-29T22:32:06.527Z,8.00
2022-11-29T22:34:33.162Z,8.00
2022-11-29T22:36:59.818Z,8.00
2022-11-29T22:39:26.569Z,8.00
2022-11-29T22:41:54.908Z,8.00
2022-11-29T22:44:22.824Z,8.00
2022-11-29T22:46:49.687Z,8.00
2022-11-29T22:49:16.498Z,8.00
2022-11-29T22:51:43.392Z,8.10
2022-11-29T22:54:16.416Z,8.10
2022-11-29T22:56:44.250Z,8.00
2022-11-29T22:59:11.069Z,8.00
2022-11-29T23:01:39.192Z,8.10
2022-11-29T23:04:08.173Z,8.00
2022-11-29T23:06:37.417Z,8.00
2022-11-29T23:09:10.500Z,8.00
2022-11-29T23:11:37.709Z,8.00
2022-11-29T23:14:04.892Z,8.00
2022-11-29T23:16:32.866Z,8.00
2022-11-29T23:19:00.678Z,7.90
2022-11-29T23:21:31.233Z,8.00
2022-11-29T23:24:00.785Z,8.00
2022-11-29T23:26:36.306Z,8.00
2022-11-29T23:29:04.060Z,7.90
2022-11-29T23:31:31.646Z,8.00
2022-11-29T23:33:58.560Z,8.00
2022-11-29T23:36:25.717Z,8.00
2022-11-29T23:38:52.643Z,8.10
2022-11-29T23:41:19.572Z,8.10
2022-11-29T23:43:46.329Z,8.10
2022-11-29T23:46:21.166Z,8.10
2022-11-29T23:48:48.462Z,8.20
2022-11-29T23:51:15.886Z,8.20
2022-11-29T23:53:43.429Z,8.20
2022-11-29T23:56:15.910Z,8.20
2022-11-29T23:58:43.424Z,8.20
